Time;durP1;ratioP1;P1;durP2;ratioP2;P2;SDS_P1;SDS_P2;PMS_P1;PMS_P2;Temp;Humidity;BMP_temperature;BMP_pressure;BME280_temperature;BME280_humidity;BME280_pressure;Samples;Min_cycle;Max_cycle;Signal;HPM_P1;HPM_P2
2021/08/31 00:01:14;;;;;;;7.32;6.35;;;;;;;;;;5115468;27;20107;-76
2021/08/31 00:03:40;;;;;;;6.50;5.85;;;;;;;;;;5115574;28;20102;-73
2021/08/31 00:06:06;;;;;;;8.02;6.07;;;;;;;;;;5115730;28;20059;-76
2021/08/31 00:08:32;;;;;;;7.35;6.43;;;;;;;;;;5115944;28;20098;-75
2021/08/31 00:10:58;;;;;;;10.13;6.97;;;;;;;;;;5114387;28;20032;-76
2021/08/31 00:13:25;;;;;;;7.18;6.47;;;;;;;;;;5115829;28;20121;-78
2021/08/31 00:15:51;;;;;;;7.13;6.38;;;;;;;;;;5115442;28;20032;-77
2021/08/31 00:18:17;;;;;;;7.38;5.85;;;;;;;;;;5115577;28;20028;-75
2021/08/31 00:20:43;;;;;;;8.18;6.85;;;;;;;;;;5115472;28;20027;-75
2021/08/31 00:23:09;;;;;;;7.28;6.22;;;;;;;;;;5115679;28;20019;-76
2021/08/31 00:25:35;;;;;;;6.38;5.78;;;;;;;;;;5115436;27;20030;-76
2021/08/31 00:28:01;;;;;;;6.78;5.88;;;;;;;;;;5115301;27;20098;-75
2021/08/31 00:30:28;;;;;;;7.10;6.40;;;;;;;;;;5115388;28;20419;-77
2021/08/31 00:32:54;;;;;;;7.90;6.38;;;;;;;;;;5115255;28;20467;-75
2021/08/31 00:35:20;;;;;;;7.60;5.93;;;;;;;;;;5115042;28;20092;-77
2021/08/31 00:37:46;;;;;;;7.03;6.20;;;;;;;;;;5114989;28;20093;-76
2021/08/31 00:40:12;;;;;;;7.80;6.18;;;;;;;;;;5114998;28;20028;-76
2021/08/31 00:42:38;;;;;;;6.13;5.53;;;;;;;;;;5115204;28;20417;-74
2021/08/31 00:45:05;;;;;;;7.22;5.82;;;;;;;;;;5113662;28;20601;-77
2021/08/31 00:47:31;;;;;;;8.05;6.60;;;;;;;;;;5115137;28;20072;-77
2021/08/31 00:49:57;;;;;;;8.63;6.30;;;;;;;;;;5114832;28;20027;-75
2021/08/31 00:52:23;;;;;;;7.45;6.75;;;;;;;;;;5114920;28;20028;-74
2021/08/31 00:54:49;;;;;;;7.40;6.63;;;;;;;;;;5114740;28;20042;-78
2021/08/31 00:57:16;;;;;;;7.43;6.70;;;;;;;;;;5114831;28;20023;-74
2021/08/31 00:59:42;;;;;;;7.78;6.97;;;;;;;;;;5114634;28;20524;-74
2021/08/31 01:02:08;;;;;;;7.82;6.95;;;;;;;;;;5114676;28;20042;-78
2021/08/31 01:04:35;;;;;;;10.05;6.80;;;;;;;;;;5114597;28;20106;-78
2021/08/31 01:07:01;;;;;;;7.10;6.43;;;;;;;;;;5114787;28;20066;-77
2021/08/31 01:09:27;;;;;;;8.40;6.90;;;;;;;;;;5114511;28;20479;-76
2021/08/31 01:11:54;;;;;;;9.57;6.63;;;;;;;;;;5113228;28;20462;-77
2021/08/31 01:14:24;;;;;;;6.82;6.13;;;;;;;;;;5114563;28;20080;-77
2021/08/31 01:16:50;;;;;;;12.15;7.03;;;;;;;;;;5114455;28;20065;-74
2021/08/31 01:19:24;;;;;;;8.05;7.22;;;;;;;;;;5114412;27;20032;-74
2021/08/31 01:21:50;;;;;;;;;;;;;;;;;;5115070;28;20020;-78
2021/08/31 01:24:16;;;;;;;6.00;5.40;;;;;;;;;;5114430;28;19916;-75
2021/08/31 01:26:43;;;;;;;7.38;6.35;;;;;;;;;;5114398;28;20027;-74
2021/08/31 01:29:09;;;;;;;6.82;6.13;;;;;;;;;;5114174;28;20531;-76
2021/08/31 01:31:35;;;;;;;7.30;5.68;;;;;;;;;;5114192;28;20031;-76
2021/08/31 01:34:01;;;;;;;6.93;6.22;;;;;;;;;;5114095;28;20119;-74
2021/08/31 01:36:27;;;;;;;8.00;6.22;;;;;;;;;;5114063;28;20024;-74
2021/08/31 01:38:54;;;;;;;8.43;6.60;;;;;;;;;;5113926;28;20191;-78
2021/08/31 01:41:20;;;;;;;8.32;6.40;;;;;;;;;;5113949;28;20015;-76
2021/08/31 01:43:47;;;;;;;7.15;6.28;;;;;;;;;;5113979;28;20112;-76
2021/08/31 01:46:13;;;;;;;7.30;6.40;;;;;;;;;;5112634;28;20027;-77
2021/08/31 01:48:40;;;;;;;7.75;6.88;;;;;;;;;;5113976;28;20028;-76
2021/08/31 01:51:06;;;;;;;8.07;6.22;;;;;;;;;;5113961;28;20055;-77
2021/08/31 01:53:35;;;;;;;7.93;6.22;;;;;;;;;;5114251;28;20030;-76
2021/08/31 01:56:02;;;;;;;8.00;6.57;;;;;;;;;;5113787;28;20038;-79
2021/08/31 01:58:28;;;;;;;7.70;6.63;;;;;;;;;;5113857;28;20032;-78
2021/08/31 02:00:54;;;;;;;6.97;6.05;;;;;;;;;;5113720;28;20058;-75
2021/08/31 02:03:20;;;;;;;7.25;6.53;;;;;;;;;;5113698;28;20020;-77
2021/08/31 02:05:47;;;;;;;7.18;6.47;;;;;;;;;;5113730;28;20038;-78
2021/08/31 02:08:13;;;;;;;7.47;6.68;;;;;;;;;;5114006;28;20102;-77
2021/08/31 02:10:39;;;;;;;8.05;6.40;;;;;;;;;;5113848;28;20045;-76
2021/08/31 02:13:05;;;;;;;7.93;6.70;;;;;;;;;;5113708;28;20038;-79
2021/08/31 02:15:31;;;;;;;6.97;6.22;;;;;;;;;;5113632;28;20544;-78
2021/08/31 02:17:57;;;;;;;7.38;6.05;;;;;;;;;;5112636;28;20030;-74
2021/08/31 02:20:24;;;;;;;6.70;6.00;;;;;;;;;;5113668;28;20032;-77
2021/08/31 02:22:50;;;;;;;7.47;6.65;;;;;;;;;;5113596;28;20100;-74
2021/08/31 02:25:16;;;;;;;7.78;6.97;;;;;;;;;;5115215;28;20038;-75
2021/08/31 02:27:42;;;;;;;8.13;6.45;;;;;;;;;;5117699;28;20034;-75
2021/08/31 02:30:08;;;;;;;7.38;6.35;;;;;;;;;;5117743;28;20494;-76
2021/08/31 02:32:35;;;;;;;6.72;6.03;;;;;;;;;;5117604;28;20036;-77
2021/08/31 02:35:01;;;;;;;8.20;6.55;;;;;;;;;;5116203;28;20042;-74
2021/08/31 02:37:27;;;;;;;7.43;6.63;;;;;;;;;;5117389;28;20493;-77
2021/08/31 02:39:53;;;;;;;7.40;6.63;;;;;;;;;;5117580;28;20028;-76
2021/08/31 02:42:19;;;;;;;6.90;6.18;;;;;;;;;;5117693;27;20032;-75
2021/08/31 02:44:46;;;;;;;7.20;6.38;;;;;;;;;;5117428;28;20024;-76
2021/08/31 02:47:12;;;;;;;9.45;6.45;;;;;;;;;;5117342;28;20023;-76
2021/08/31 02:49:38;;;;;;;8.23;6.68;;;;;;;;;;5117206;28;20401;-77
2021/08/31 02:52:04;;;;;;;7.82;6.88;;;;;;;;;;5117104;28;20020;-77
2021/08/31 02:54:31;;;;;;;7.18;6.47;;;;;;;;;;5117010;28;20045;-77
2021/08/31 02:56:57;;;;;;;7.35;6.60;;;;;;;;;;5117317;28;20028;-74
2021/08/31 02:59:25;;;;;;;8.20;6.25;;;;;;;;;;5117135;28;20023;-75
2021/08/31 03:02:07;;;;;;;6.90;6.20;;;;;;;;;;5117030;28;20036;-77
2021/08/31 03:04:35;;;;;;;5.95;5.28;;;;;;;;;;5117060;28;20034;-74
2021/08/31 03:07:02;;;;;;;7.90;5.78;;;;;;;;;;5116971;28;20039;-76
2021/08/31 03:09:28;;;;;;;7.47;5.70;;;;;;;;;;5116897;28;20032;-77
2021/08/31 03:11:54;;;;;;;6.53;5.57;;;;;;;;;;5116893;28;20032;-76
2021/08/31 03:14:21;;;;;;;7.57;6.20;;;;;;;;;;5116960;28;20024;-75
2021/08/31 03:16:48;;;;;;;7.28;6.13;;;;;;;;;;5116679;28;20039;-77
2021/08/31 03:19:15;;;;;;;5.85;5.15;;;;;;;;;;5116922;28;20070;-75
2021/08/31 03:21:41;;;;;;;6.03;5.38;;;;;;;;;;5116654;28;20020;-75
2021/08/31 03:24:07;;;;;;;6.70;5.97;;;;;;;;;;5116648;28;20023;-74
2021/08/31 03:26:33;;;;;;;6.32;5.72;;;;;;;;;;5116625;28;20027;-76
2021/08/31 03:28:59;;;;;;;7.35;6.07;;;;;;;;;;5116549;28;20474;-75
2021/08/31 03:31:25;;;;;;;6.22;5.22;;;;;;;;;;5116574;28;20027;-74
2021/08/31 03:33:51;;;;;;;7.00;6.03;;;;;;;;;;5116489;28;20028;-73
2021/08/31 03:36:17;;;;;;;6.20;5.53;;;;;;;;;;5115428;28;20027;-76
2021/08/31 03:38:44;;;;;;;7.75;6.15;;;;;;;;;;5115840;28;20235;-74
2021/08/31 03:41:10;;;;;;;6.85;5.97;;;;;;;;;;5116323;28;20523;-76
2021/08/31 03:43:36;;;;;;;6.60;5.93;;;;;;;;;;5116323;28;20024;-73
2021/08/31 03:46:02;;;;;;;7.30;6.10;;;;;;;;;;5116320;28;20016;-78
2021/08/31 03:48:28;;;;;;;7.93;6.22;;;;;;;;;;5114883;28;20027;-73
2021/08/31 03:50:54;;;;;;;6.65;5.95;;;;;;;;;;5114730;28;20363;-76
2021/08/31 03:53:20;;;;;;;6.25;5.65;;;;;;;;;;5116058;28;20143;-77
2021/08/31 03:55:46;;;;;;;7.20;6.50;;;;;;;;;;5115815;28;20031;-77
2021/08/31 03:58:13;;;;;;;7.70;6.13;;;;;;;;;;5116185;28;20359;-74
2021/08/31 04:00:39;;;;;;;6.20;5.60;;;;;;;;;;5115812;28;20032;-72
2021/08/31 04:03:05;;;;;;;7.70;6.25;;;;;;;;;;5115924;28;20062;-74
2021/08/31 04:05:31;;;;;;;8.10;6.30;;;;;;;;;;5115890;28;20043;-77
2021/08/31 04:07:57;;;;;;;7.63;6.28;;;;;;;;;;5115674;28;20023;-79
2021/08/31 04:10:23;;;;;;;7.65;6.85;;;;;;;;;;5115752;28;20047;-74
2021/08/31 04:12:50;;;;;;;7.18;6.43;;;;;;;;;;5115623;28;20383;-77
2021/08/31 04:15:16;;;;;;;7.82;6.78;;;;;;;;;;5115522;28;20059;-79
2021/08/31 04:17:42;;;;;;;7.60;6.80;;;;;;;;;;5115638;28;20027;-79
2021/08/31 04:20:08;;;;;;;10.23;7.93;;;;;;;;;;5115586;28;20034;-75
2021/08/31 04:22:34;;;;;;;7.10;5.88;;;;;;;;;;5115393;28;20036;-78
2021/08/31 04:25:00;;;;;;;6.50;5.57;;;;;;;;;;5115232;28;20028;-78
2021/08/31 04:27:27;;;;;;;7.93;5.70;;;;;;;;;;5115762;28;20019;-75
2021/08/31 04:29:53;;;;;;;8.55;5.53;;;;;;;;;;5121749;27;20015;-74
2021/08/31 04:32:19;;;;;;;6.53;5.72;;;;;;;;;;5128534;27;20027;-77
2021/08/31 04:34:45;;;;;;;6.85;6.15;;;;;;;;;;5135717;27;20056;-78
2021/08/31 04:37:11;;;;;;;7.35;5.80;;;;;;;;;;5135778;27;20023;-73
2021/08/31 04:39:37;;;;;;;6.47;5.78;;;;;;;;;;5135457;27;20051;-78
2021/08/31 04:42:05;;;;;;;14.23;11.23;;;;;;;;;;5135727;27;20046;-76
2021/08/31 04:44:31;;;;;;;7.90;5.78;;;;;;;;;;5135745;27;20404;-77
2021/08/31 04:46:57;;;;;;;10.15;9.13;;;;;;;;;;5135486;27;20151;-75
2021/08/31 04:49:24;;;;;;;28.75;25.70;;;;;;;;;;5135256;27;20445;-76
2021/08/31 04:51:50;;;;;;;14.80;13.20;;;;;;;;;;5135459;27;20375;-77
2021/08/31 04:54:16;;;;;;;19.70;12.18;;;;;;;;;;5135185;27;20535;-78
2021/08/31 04:56:43;;;;;;;14.88;9.30;;;;;;;;;;5135304;27;20026;-76
2021/08/31 04:59:09;;;;;;;18.08;13.80;;;;;;;;;;5135190;27;20485;-75
2021/08/31 05:01:35;;;;;;;17.63;11.80;;;;;;;;;;5135254;27;20043;-75
2021/08/31 05:04:01;;;;;;;9.00;8.10;;;;;;;;;;5134866;27;20023;-76
2021/08/31 05:06:27;;;;;;;10.27;7.50;;;;;;;;;;5135308;27;20046;-78
2021/08/31 05:08:54;;;;;;;10.40;7.15;;;;;;;;;;5135107;27;20482;-77
2021/08/31 05:11:23;;;;;;;7.75;6.03;;;;;;;;;;5135039;27;20027;-77
2021/08/31 05:13:49;;;;;;;53.47;45.05;;;;;;;;;;5135180;27;20027;-76
2021/08/31 05:16:17;;;;;;;18.92;16.30;;;;;;;;;;5135000;27;20041;-77
2021/08/31 05:18:44;;;;;;;7.63;6.18;;;;;;;;;;5134817;27;20031;-80
2021/08/31 05:21:10;;;;;;;7.47;5.28;;;;;;;;;;5134622;27;20023;-80
2021/08/31 05:23:36;;;;;;;7.80;6.38;;;;;;;;;;5134041;27;20456;-80
2021/08/31 05:26:03;;;;;;;7.93;6.65;;;;;;;;;;5134545;27;20065;-80
2021/08/31 05:28:30;;;;;;;7.03;6.32;;;;;;;;;;5133853;27;20032;-77
2021/08/31 05:30:56;;;;;;;5.90;5.13;;;;;;;;;;5108017;28;20376;-80
2021/08/31 05:33:22;;;;;;;6.70;5.00;;;;;;;;;;5113187;28;20031;-78
2021/08/31 05:35:51;;;;;;;5.95;5.28;;;;;;;;;;5103648;28;20433;-78
2021/08/31 05:38:17;;;;;;;5.93;5.20;;;;;;;;;;5111724;28;20544;-78
2021/08/31 05:40:43;;;;;;;5.13;4.60;;;;;;;;;;5112914;28;20051;-76
2021/08/31 05:43:09;;;;;;;8.48;6.13;;;;;;;;;;5100863;28;20074;-76
2021/08/31 05:45:35;;;;;;;9.48;7.50;;;;;;;;;;5092040;28;20032;-79
2021/08/31 05:48:05;;;;;;;10.23;6.28;;;;;;;;;;5090700;28;20028;-76
2021/08/31 05:50:31;;;;;;;9.05;6.75;;;;;;;;;;5091799;28;20036;-78
2021/08/31 05:52:57;;;;;;;6.40;5.65;;;;;;;;;;5092296;28;20421;-78
2021/08/31 05:55:23;;;;;;;5.95;4.63;;;;;;;;;;5092263;28;20044;-77
2021/08/31 05:57:49;;;;;;;7.68;5.30;;;;;;;;;;5091470;28;20113;-78
2021/08/31 06:00:15;;;;;;;5.55;5.00;;;;;;;;;;5091735;28;20028;-76
2021/08/31 06:02:44;;;;;;;8.65;5.45;;;;;;;;;;5090737;28;20032;-76
2021/08/31 06:05:11;;;;;;;8.57;5.45;;;;;;;;;;5092260;28;20487;-79
2021/08/31 06:07:39;;;;;;;5.95;4.85;;;;;;;;;;5091911;28;20032;-78
2021/08/31 06:10:05;;;;;;;8.90;6.35;;;;;;;;;;5092388;28;20038;-78
2021/08/31 06:12:32;;;;;;;6.97;5.53;;;;;;;;;;5091748;28;20056;-77
2021/08/31 06:14:58;;;;;;;7.60;5.30;;;;;;;;;;5091908;28;20032;-77
2021/08/31 06:17:26;;;;;;;8.70;5.70;;;;;;;;;;5092285;28;20095;-78
2021/08/31 06:19:55;;;;;;;7.10;5.57;;;;;;;;;;5091730;28;20052;-77
2021/08/31 06:22:21;;;;;;;14.38;6.82;;;;;;;;;;5091739;28;20028;-77
2021/08/31 06:24:47;;;;;;;18.08;8.05;;;;;;;;;;5091425;28;20028;-76
2021/08/31 06:27:13;;;;;;;10.40;6.22;;;;;;;;;;5091516;28;20552;-77
2021/08/31 06:29:40;;;;;;;16.52;7.43;;;;;;;;;;5098469;28;20032;-80
2021/08/31 06:32:06;;;;;;;9.07;6.20;;;;;;;;;;5112210;28;20063;-77
2021/08/31 06:34:32;;;;;;;8.15;5.88;;;;;;;;;;5112252;28;20030;-70
2021/08/31 06:36:58;;;;;;;16.63;7.60;;;;;;;;;;5111003;28;20038;-81
2021/08/31 06:39:27;;;;;;;8.63;6.75;;;;;;;;;;5111850;28;20070;-78
2021/08/31 06:41:53;;;;;;;8.00;5.65;;;;;;;;;;5111908;28;20057;-76
2021/08/31 06:44:19;;;;;;;7.82;5.47;;;;;;;;;;5111876;28;20109;-78
2021/08/31 06:46:45;;;;;;;14.07;8.07;;;;;;;;;;5111909;28;20028;-79
2021/08/31 06:49:12;;;;;;;6.90;6.18;;;;;;;;;;5110654;28;20039;-77
2021/08/31 06:51:38;;;;;;;7.05;6.07;;;;;;;;;;5109903;28;20414;-76
2021/08/31 06:54:05;;;;;;;6.40;5.45;;;;;;;;;;5107357;28;20031;-79
2021/08/31 06:56:31;;;;;;;6.82;5.57;;;;;;;;;;5111575;28;20478;-77
2021/08/31 06:58:57;;;;;;;12.43;6.00;;;;;;;;;;5111303;28;20066;-78
2021/08/31 07:01:23;;;;;;;6.15;4.47;;;;;;;;;;5111463;28;20039;-78
2021/08/31 07:03:49;;;;;;;8.32;5.25;;;;;;;;;;5110739;28;20040;-76
2021/08/31 07:06:15;;;;;;;5.78;4.63;;;;;;;;;;5109958;28;20020;-77
2021/08/31 07:08:41;;;;;;;5.93;4.88;;;;;;;;;;5111801;28;20035;-76
2021/08/31 07:11:08;;;;;;;6.50;5.15;;;;;;;;;;5110622;28;20077;-78
2021/08/31 07:13:34;;;;;;;5.78;4.75;;;;;;;;;;5115028;28;20034;-76
2021/08/31 07:16:00;;;;;;;8.52;4.72;;;;;;;;;;5114837;28;20379;-78
2021/08/31 07:18:26;;;;;;;5.68;4.75;;;;;;;;;;5114974;28;20032;-77
2021/08/31 07:20:52;;;;;;;6.35;5.00;;;;;;;;;;5114686;28;20035;-71
2021/08/31 07:23:18;;;;;;;7.95;4.82;;;;;;;;;;5114659;28;20051;-77
2021/08/31 07:25:48;;;;;;;6.18;4.40;;;;;;;;;;5114558;28;20055;-77
2021/08/31 07:28:14;;;;;;;5.78;4.35;;;;;;;;;;5114177;28;20031;-78
2021/08/31 07:30:41;;;;;;;5.57;4.18;;;;;;;;;;5114655;28;20030;-76
2021/08/31 07:33:08;;;;;;;7.35;5.47;;;;;;;;;;5114553;28;20125;-75
2021/08/31 07:35:34;;;;;;;5.20;4.65;;;;;;;;;;5114611;28;20042;-76
2021/08/31 07:38:01;;;;;;;5.80;5.05;;;;;;;;;;5114491;28;20486;-77
2021/08/31 07:40:27;;;;;;;5.15;4.60;;;;;;;;;;5113632;28;20061;-76
2021/08/31 07:42:53;;;;;;;5.60;4.38;;;;;;;;;;5113925;28;20031;-77
2021/08/31 07:45:20;;;;;;;11.80;4.88;;;;;;;;;;5114311;28;20110;-77
2021/08/31 07:47:47;;;;;;;6.00;4.35;;;;;;;;;;5114456;28;20028;-75
2021/08/31 07:50:14;;;;;;;4.88;4.22;;;;;;;;;;5114336;27;20072;-75
2021/08/31 07:52:40;;;;;;;6.75;4.00;;;;;;;;;;5114514;28;20050;-75
2021/08/31 07:55:07;;;;;;;5.97;4.25;;;;;;;;;;5113861;28;20110;-76
2021/08/31 07:57:34;;;;;;;5.00;4.50;;;;;;;;;;5113990;28;20051;-76
2021/08/31 08:00:01;;;;;;;5.25;3.60;;;;;;;;;;5114161;28;20147;-76
2021/08/31 08:02:27;;;;;;;5.65;4.28;;;;;;;;;;5113960;28;20446;-74
2021/08/31 08:04:58;;;;;;;5.90;4.90;;;;;;;;;;5114461;28;20368;-75
2021/08/31 08:07:26;;;;;;;5.28;3.53;;;;;;;;;;5113962;28;20036;-76
2021/08/31 08:09:53;;;;;;;4.78;3.50;;;;;;;;;;5114133;28;20019;-77
2021/08/31 08:12:19;;;;;;;17.45;9.75;;;;;;;;;;5113472;28;20031;-76
2021/08/31 08:14:45;;;;;;;15.82;13.13;;;;;;;;;;5113969;28;20044;-76
2021/08/31 08:17:11;;;;;;;9.45;4.72;;;;;;;;;;5113297;28;20059;-75
2021/08/31 08:19:38;;;;;;;5.85;5.25;;;;;;;;;;5114137;28;20482;-75
2021/08/31 08:22:04;;;;;;;6.47;4.40;;;;;;;;;;5113523;28;20376;-78
2021/08/31 08:24:30;;;;;;;5.93;3.90;;;;;;;;;;5112889;28;20028;-77
2021/08/31 08:26:59;;;;;;;6.07;4.28;;;;;;;;;;5113581;28;20030;-75
2021/08/31 08:29:25;;;;;;;5.45;3.40;;;;;;;;;;5112934;28;20196;-76
2021/08/31 08:31:52;;;;;;;4.93;3.83;;;;;;;;;;5113624;27;20031;-77
2021/08/31 08:34:18;;;;;;;4.25;3.60;;;;;;;;;;5113155;28;20055;-75
2021/08/31 08:36:44;;;;;;;4.60;3.00;;;;;;;;;;5113282;28;20031;-78
2021/08/31 08:39:10;;;;;;;4.22;3.40;;;;;;;;;;5112105;28;20542;-75
2021/08/31 08:41:36;;;;;;;6.45;3.13;;;;;;;;;;5099205;28;20020;-76
2021/08/31 08:44:03;;;;;;;5.30;3.00;;;;;;;;;;5102996;28;20020;-82
2021/08/31 08:46:31;;;;;;;3.97;2.47;;;;;;;;;;5111038;28;20106;-79
2021/08/31 08:48:58;;;;;;;3.85;2.75;;;;;;;;;;5113618;28;20113;-81
2021/08/31 08:51:26;;;;;;;5.47;3.22;;;;;;;;;;5109962;28;20077;-76
2021/08/31 08:53:52;;;;;;;4.25;2.70;;;;;;;;;;5109273;28;20489;-77
2021/08/31 08:56:20;;;;;;;5.25;2.72;;;;;;;;;;5112493;28;20032;-70
2021/08/31 08:58:46;;;;;;;5.18;3.30;;;;;;;;;;5113050;28;20089;-78
2021/08/31 09:01:12;;;;;;;5.80;4.63;;;;;;;;;;5112682;28;20035;-75
2021/08/31 09:03:39;;;;;;;13.13;10.52;;;;;;;;;;5112803;28;20058;-75
2021/08/31 09:06:05;;;;;;;6.07;5.07;;;;;;;;;;5111577;28;20457;-75
2021/08/31 09:08:32;;;;;;;4.18;2.50;;;;;;;;;;5112619;28;20532;-75
2021/08/31 09:10:58;;;;;;;3.50;2.33;;;;;;;;;;5105451;28;20120;-76
2021/08/31 09:13:24;;;;;;;6.00;2.80;;;;;;;;;;5096255;28;20023;-71
2021/08/31 09:15:50;;;;;;;38.72;30.00;;;;;;;;;;5092270;28;20044;-75
2021/08/31 09:18:25;;;;;;;10.00;5.10;;;;;;;;;;5098753;28;20110;-77
2021/08/31 09:20:54;;;;;;;6.65;2.65;;;;;;;;;;5111228;28;20027;-76
2021/08/31 09:23:22;;;;;;;3.90;2.22;;;;;;;;;;5112142;28;20066;-75
2021/08/31 09:25:51;;;;;;;3.00;2.13;;;;;;;;;;5112566;27;20046;-75
2021/08/31 09:28:27;;;;;;;4.13;1.90;;;;;;;;;;5112218;28;20035;-76
2021/08/31 09:31:05;;;;;;;5.55;2.60;;;;;;;;;;5112116;28;20104;-75
2021/08/31 09:33:33;;;;;;;3.67;2.03;;;;;;;;;;5100207;28;20031;-78
2021/08/31 09:36:04;;;;;;;3.38;1.77;;;;;;;;;;5104678;28;20498;-76
2021/08/31 09:38:45;;;;;;;1.63;1.45;;;;;;;;;;5091380;28;20056;-77
2021/08/31 09:41:24;;;;;;;3.58;1.80;;;;;;;;;;5091924;28;20336;-77
2021/08/31 09:43:50;;;;;;;3.65;2.08;;;;;;;;;;5091783;28;20020;-76
2021/08/31 09:46:17;;;;;;;4.40;2.05;;;;;;;;;;5091796;28;20020;-77
2021/08/31 09:48:43;;;;;;;3.25;2.17;;;;;;;;;;5091591;28;20034;-78
2021/08/31 09:51:13;;;;;;;1.90;1.55;;;;;;;;;;5091397;28;20024;-77
2021/08/31 09:53:41;;;;;;;7.88;6.40;;;;;;;;;;5091396;28;20055;-77
2021/08/31 09:56:11;;;;;;;4.03;2.33;;;;;;;;;;5105510;28;20046;-77
2021/08/31 09:58:39;;;;;;;3.58;1.52;;;;;;;;;;5097881;28;20082;-76
2021/08/31 10:01:05;;;;;;;3.22;1.70;;;;;;;;;;5092709;28;20388;-76
2021/08/31 10:03:31;;;;;;;2.97;2.20;;;;;;;;;;5112211;28;20031;-75
2021/08/31 10:05:59;;;;;;;2.42;1.67;;;;;;;;;;5105915;28;20024;-75
2021/08/31 10:08:25;;;;;;;20.48;2.33;;;;;;;;;;5091689;28;20382;-74
2021/08/31 10:10:54;;;;;;;2.38;1.77;;;;;;;;;;5091490;28;20032;-77
2021/08/31 10:13:21;;;;;;;2.70;1.83;;;;;;;;;;5091421;28;20036;-77
2021/08/31 10:15:49;;;;;;;4.07;3.67;;;;;;;;;;5091312;28;20038;-76
2021/08/31 10:18:16;;;;;;;16.38;14.50;;;;;;;;;;5091296;28;20031;-76
2021/08/31 10:20:47;;;;;;;4.40;3.22;;;;;;;;;;5090863;28;20095;-76
2021/08/31 10:23:14;;;;;;;52.38;46.67;;;;;;;;;;5091079;28;20051;-79
2021/08/31 10:25:41;;;;;;;2.92;1.88;;;;;;;;;;5091151;28;20028;-77
2021/08/31 10:28:27;;;;;;;10.93;4.45;;;;;;;;;;5101670;28;20455;-79
2021/08/31 10:30:54;;;;;;;4.43;1.58;;;;;;;;;;5107666;28;20041;-77
2021/08/31 10:33:39;;;;;;;3.03;1.40;;;;;;;;;;5111784;28;20024;-75
2021/08/31 10:36:07;;;;;;;1.88;1.23;;;;;;;;;;5111557;28;20039;-78
2021/08/31 10:38:40;;;;;;;5.32;1.42;;;;;;;;;;5111548;28;20090;-77
2021/08/31 10:41:26;;;;;;;2.92;1.45;;;;;;;;;;5111340;28;20028;-76
2021/08/31 10:43:53;;;;;;;2.28;1.38;;;;;;;;;;5111101;28;20035;-78
2021/08/31 10:46:19;;;;;;;3.03;1.33;;;;;;;;;;5113112;28;20031;-78
2021/08/31 10:49:04;;;;;;;6.03;1.25;;;;;;;;;;5115395;28;20517;-76
2021/08/31 10:51:30;;;;;;;17.83;2.42;;;;;;;;;;5114096;28;20039;-76
2021/08/31 10:53:57;;;;;;;13.52;2.60;;;;;;;;;;5113381;28;20023;-76
2021/08/31 10:56:23;;;;;;;1.52;0.90;;;;;;;;;;5115701;28;20027;-77
2021/08/31 10:58:53;;;;;;;3.03;1.15;;;;;;;;;;5115516;28;20031;-78
2021/08/31 11:01:21;;;;;;;2.53;1.13;;;;;;;;;;5115061;28;20031;-76
2021/08/31 11:03:48;;;;;;;2.17;1.00;;;;;;;;;;5115280;28;20114;-77
2021/08/31 11:06:16;;;;;;;10.50;1.63;;;;;;;;;;5114864;28;20027;-77
2021/08/31 11:08:42;;;;;;;1.55;1.20;;;;;;;;;;5115211;28;20058;-76
2021/08/31 11:11:18;;;;;;;2.30;0.90;;;;;;;;;;5114968;28;20027;-76
2021/08/31 11:13:55;;;;;;;1.90;1.15;;;;;;;;;;5115003;28;20810;-75
2021/08/31 11:16:28;;;;;;;1.88;1.33;;;;;;;;;;5115162;28;20047;-77
2021/08/31 11:18:55;;;;;;;2.72;1.05;;;;;;;;;;5114770;27;20027;-75
2021/08/31 11:21:22;;;;;;;3.47;1.30;;;;;;;;;;5113421;28;20027;-76
2021/08/31 11:23:48;;;;;;;2.20;1.85;;;;;;;;;;5114907;28;20140;-76
2021/08/31 11:26:24;;;;;;;1.73;1.20;;;;;;;;;;5114760;28;20459;-76
2021/08/31 11:28:51;;;;;;;5.13;2.42;;;;;;;;;;5114452;28;20028;-76
2021/08/31 11:31:25;;;;;;;2.13;1.35;;;;;;;;;;5114847;27;20027;-76
2021/08/31 11:33:53;;;;;;;1.38;0.85;;;;;;;;;;5114444;28;20020;-77
2021/08/31 11:36:20;;;;;;;1.30;0.93;;;;;;;;;;5114314;28;20035;-78
2021/08/31 11:38:59;;;;;;;2.03;1.17;;;;;;;;;;5114544;28;20075;-76
2021/08/31 11:41:44;;;;;;;11.98;1.75;;;;;;;;;;5114598;28;20027;-75
2021/08/31 11:44:14;;;;;;;4.30;1.63;;;;;;;;;;5113939;28;20562;-78
2021/08/31 11:46:45;;;;;;;3.67;1.30;;;;;;;;;;5114990;28;20031;-77
2021/08/31 11:49:16;;;;;;;1.48;1.00;;;;;;;;;;5114642;28;20530;-77
2021/08/31 11:51:58;;;;;;;4.35;1.95;;;;;;;;;;5114714;28;20039;-77
2021/08/31 11:54:28;;;;;;;2.38;1.10;;;;;;;;;;5114413;28;20044;-77
2021/08/31 11:56:56;;;;;;;3.17;1.30;;;;;;;;;;5114246;28;20023;-76
2021/08/31 11:59:35;;;;;;;1.63;1.35;;;;;;;;;;5114290;28;20066;-77
2021/08/31 12:02:13;;;;;;;2.58;1.27;;;;;;;;;;5114654;28;20063;-77
2021/08/31 12:04:39;;;;;;;2.45;1.30;;;;;;;;;;5114770;28;20031;-78
2021/08/31 12:07:07;;;;;;;2.25;1.30;;;;;;;;;;5114035;28;20535;-77
2021/08/31 12:09:33;;;;;;;2.03;0.93;;;;;;;;;;5113806;28;20428;-76
2021/08/31 12:11:59;;;;;;;1.52;1.10;;;;;;;;;;5114288;28;20055;-77
2021/08/31 12:14:26;;;;;;;3.75;1.55;;;;;;;;;;5113928;28;20019;-75
2021/08/31 12:16:52;;;;;;;6.10;2.92;;;;;;;;;;5113985;28;20062;-76
2021/08/31 12:19:19;;;;;;;4.38;3.97;;;;;;;;;;5113896;28;20034;-76
2021/08/31 12:22:04;;;;;;;8.68;5.45;;;;;;;;;;5104611;28;20047;-74
2021/08/31 12:24:30;;;;;;;2.92;2.15;;;;;;;;;;5097649;28;20390;-76
2021/08/31 12:27:04;;;;;;;7.78;1.70;;;;;;;;;;5098523;28;20077;-76
2021/08/31 12:29:43;;;;;;;1.85;1.27;;;;;;;;;;5098650;28;20026;-76
2021/08/31 12:32:09;;;;;;;1.55;1.02;;;;;;;;;;5113738;28;20077;-76
2021/08/31 12:34:35;;;;;;;1.35;0.70;;;;;;;;;;5113950;28;20168;-76
2021/08/31 12:37:02;;;;;;;9.60;1.63;;;;;;;;;;5114089;28;20020;-75
2021/08/31 12:39:30;;;;;;;1.92;0.95;;;;;;;;;;5113299;28;20052;-76
2021/08/31 12:41:56;;;;;;;1.92;0.90;;;;;;;;;;5114053;28;20023;-75
2021/08/31 12:44:23;;;;;;;2.53;0.50;;;;;;;;;;5113148;28;20034;-77
2021/08/31 12:46:52;;;;;;;1.85;0.82;;;;;;;;;;5114038;28;20073;-77
2021/08/31 12:49:19;;;;;;;0.50;0.30;;;;;;;;;;5113551;28;20099;-77
2021/08/31 12:51:48;;;;;;;1.27;0.45;;;;;;;;;;5113704;28;20027;-76
2021/08/31 12:54:34;;;;;;;2.88;0.73;;;;;;;;;;5113624;28;20028;-76
2021/08/31 12:57:07;;;;;;;0.93;0.70;;;;;;;;;;5113576;28;20024;-76
2021/08/31 12:59:33;;;;;;;1.97;0.50;;;;;;;;;;5113551;28;20486;-76
2021/08/31 13:02:02;;;;;;;1.77;0.40;;;;;;;;;;5113845;28;20431;-76
2021/08/31 13:04:29;;;;;;;2.00;1.60;;;;;;;;;;5113046;28;20028;-76
2021/08/31 13:07:05;;;;;;;0.80;0.47;;;;;;;;;;5112361;28;20057;-76
2021/08/31 13:09:32;;;;;;;0.85;0.50;;;;;;;;;;5105858;28;20027;-75
2021/08/31 13:11:58;;;;;;;1.15;0.57;;;;;;;;;;5113729;28;20020;-74
2021/08/31 13:14:29;;;;;;;1.67;0.73;;;;;;;;;;5095291;28;20077;-76
2021/08/31 13:16:56;;;;;;;1.30;0.60;;;;;;;;;;5093068;28;20036;-75
2021/08/31 13:19:23;;;;;;;3.67;1.05;;;;;;;;;;5093369;28;20471;-76
2021/08/31 13:21:49;;;;;;;7.57;1.00;;;;;;;;;;5092585;28;20032;-76
2021/08/31 13:24:16;;;;;;;1.70;0.52;;;;;;;;;;5092624;28;20020;-76
2021/08/31 13:26:43;;;;;;;1.63;1.02;;;;;;;;;;5091316;28;20387;-75
2021/08/31 13:29:09;;;;;;;2.55;1.02;;;;;;;;;;5092463;28;20030;-75
2021/08/31 13:31:36;;;;;;;1.90;0.70;;;;;;;;;;5092257;28;20031;-74
2021/08/31 13:34:03;;;;;;;4.45;1.52;;;;;;;;;;5092889;28;20036;-74
2021/08/31 13:36:29;;;;;;;0.93;0.47;;;;;;;;;;5092160;28;20372;-76
2021/08/31 13:38:55;;;;;;;1.60;0.63;;;;;;;;;;5092581;28;20403;-76
2021/08/31 13:41:21;;;;;;;1.35;0.63;;;;;;;;;;5092541;28;20024;-74
2021/08/31 13:43:47;;;;;;;1.33;0.50;;;;;;;;;;5092345;28;20499;-74
2021/08/31 13:46:14;;;;;;;1.73;0.70;;;;;;;;;;5092601;28;20150;-74
2021/08/31 13:48:40;;;;;;;1.25;0.70;;;;;;;;;;5092564;28;20036;-75
2021/08/31 13:51:06;;;;;;;0.75;0.60;;;;;;;;;;5092784;28;20047;-74
2021/08/31 13:53:32;;;;;;;0.80;0.60;;;;;;;;;;5092467;28;20027;-75
2021/08/31 13:55:59;;;;;;;1.60;0.70;;;;;;;;;;5092553;28;20040;-74
2021/08/31 13:58:25;;;;;;;3.35;1.05;;;;;;;;;;5092392;28;20040;-74
2021/08/31 14:00:51;;;;;;;2.00;0.70;;;;;;;;;;5092412;28;20036;-75
2021/08/31 14:03:18;;;;;;;1.13;0.60;;;;;;;;;;5092671;28;20111;-74
2021/08/31 14:05:44;;;;;;;0.98;0.60;;;;;;;;;;5092073;28;20027;-74
2021/08/31 14:08:11;;;;;;;1.20;0.90;;;;;;;;;;5092603;28;20107;-75
2021/08/31 14:10:37;;;;;;;2.25;1.40;;;;;;;;;;5092172;28;20031;-75
2021/08/31 14:13:04;;;;;;;1.95;1.08;;;;;;;;;;5092492;28;20506;-75
2021/08/31 14:15:31;;;;;;;3.92;1.60;;;;;;;;;;5092002;28;20036;-75
2021/08/31 14:17:57;;;;;;;1.98;1.35;;;;;;;;;;5093384;28;20028;-76
2021/08/31 14:20:23;;;;;;;2.10;1.30;;;;;;;;;;5093180;28;20489;-75
2021/08/31 14:22:50;;;;;;;2.13;1.60;;;;;;;;;;5097404;28;20051;-75
2021/08/31 14:25:16;;;;;;;4.85;1.73;;;;;;;;;;5097317;28;20024;-74
2021/08/31 14:27:44;;;;;;;2.40;1.10;;;;;;;;;;5099758;28;20085;-75
2021/08/31 14:30:11;;;;;;;3.83;2.42;;;;;;;;;;5108251;28;20032;-74
2021/08/31 14:32:37;;;;;;;3.38;2.55;;;;;;;;;;5106397;28;20024;-76
2021/08/31 14:35:04;;;;;;;3.42;1.90;;;;;;;;;;5097155;28;20031;-76
2021/08/31 14:37:30;;;;;;;2.65;1.10;;;;;;;;;;5097049;28;20082;-76
2021/08/31 14:39:56;;;;;;;2.22;1.15;;;;;;;;;;5097202;28;20024;-75
2021/08/31 14:42:22;;;;;;;2.05;1.00;;;;;;;;;;5096941;28;20031;-75